Terminal Aerodrome Forecast
Issued by NWS Sioux Falls, SD

Home | Current Version | Previous Version | Graphics & Text | Print | Product List | Glossary On
Versions: 1 2 3 4 5 6 7 8 9 10 11 12 13
720
FTUS43 KFSD 232320
TAFFSD
TAF
KFSD 232320Z 2400/2424 32015G27KT P6SM FEW050
     FM240300 31007KT P6SM SKC
     FM240800 VRB03KT P6SM SKC
     FM241200 29007KT P6SM FEW250
     FM241400 29011KT P6SM FEW250
     FM241600 30015G23KT P6SM FEW200=

USA.gov is the U.S. government's official web portal to all federal, state and local government web resources and services.